sensor_id;sensor_type;location;lat;lon;timestamp;pressure;altitude;pressure_sealevel;temperature;humidity
61318;BME280;47201;40.428;-8.436;2023-11-21T00:01:42;101325.69;;;14.06;100.00
61318;BME280;47201;40.428;-8.436;2023-11-21T00:03:43;101323.03;;;14.08;100.00
61318;BME280;47201;40.428;-8.436;2023-11-21T00:05:44;101316.00;;;14.11;100.00
61318;BME280;47201;40.428;-8.436;2023-11-21T00:07:44;101318.63;;;14.11;100.00
61318;BME280;47201;40.428;-8.436;2023-11-21T00:09:45;101326.50;;;14.13;100.00
61318;BME280;47201;40.428;-8.436;2023-11-21T00:11:45;101307.19;;;14.16;100.00
61318;BME280;47201;40.428;-8.436;2023-11-21T00:13:46;101315.09;;;14.17;100.00
61318;BME280;47201;40.428;-8.436;2023-11-21T00:15:46;101322.09;;;14.18;100.00
61318;BME280;47201;40.428;-8.436;2023-11-21T00:17:47;101325.59;;;14.19;100.00
61318;BME280;47201;40.428;-8.436;2023-11-21T00:19:47;101328.19;;;14.20;100.00
61318;BME280;47201;40.428;-8.436;2023-11-21T00:21:48;101335.19;;;14.23;100.00
61318;BME280;47201;40.428;-8.436;2023-11-21T00:23:48;101331.69;;;14.24;100.00
61318;BME280;47201;40.428;-8.436;2023-11-21T00:25:49;101337.81;;;14.26;100.00
61318;BME280;47201;40.428;-8.436;2023-11-21T00:27:49;101335.19;;;14.29;100.00
61318;BME280;47201;40.428;-8.436;2023-11-21T00:29:50;101343.03;;;14.32;100.00
61318;BME280;47201;40.428;-8.436;2023-11-21T00:31:51;101342.16;;;14.30;100.00
61318;BME280;47201;40.428;-8.436;2023-11-21T00:33:52;101338.66;;;14.31;100.00
61318;BME280;47201;40.428;-8.436;2023-11-21T00:35:52;101346.53;;;14.34;100.00
61318;BME280;47201;40.428;-8.436;2023-11-21T00:37:53;101343.91;;;14.34;100.00
61318;BME280;47201;40.428;-8.436;2023-11-21T00:39:54;101349.13;;;14.36;100.00
61318;BME280;47201;40.428;-8.436;2023-11-21T00:41:54;101341.28;;;14.34;100.00
61318;BME280;47201;40.428;-8.436;2023-11-21T00:43:55;101343.91;;;14.33;100.00
61318;BME280;47201;40.428;-8.436;2023-11-21T00:45:55;101332.56;;;14.29;100.00
61318;BME280;47201;40.428;-8.436;2023-11-21T00:47:56;101341.28;;;14.30;100.00
61318;BME280;47201;40.428;-8.436;2023-11-21T00:49:58;101335.22;;;14.20;100.00
61318;BME280;47201;40.428;-8.436;2023-11-21T00:51:59;101335.25;;;14.15;100.00
61318;BME280;47201;40.428;-8.436;2023-11-21T00:54:00;101337.03;;;14.08;100.00
61318;BME280;47201;40.428;-8.436;2023-11-21T00:56:01;101338.81;;;14.05;100.00
61318;BME280;47201;40.428;-8.436;2023-11-21T00:58:02;101338.81;;;14.05;100.00
61318;BME280;47201;40.428;-8.436;2023-11-21T01:00:04;101336.22;;;13.99;100.00
61318;BME280;47201;40.428;-8.436;2023-11-21T01:02:13;101329.22;;;13.98;100.00
61318;BME280;47201;40.428;-8.436;2023-11-21T01:04:14;101332.75;;;13.90;100.00
61318;BME280;47201;40.428;-8.436;2023-11-21T01:06:15;101336.28;;;13.88;100.00
61318;BME280;47201;40.428;-8.436;2023-11-21T01:08:16;101330.16;;;13.84;100.00
61318;BME280;47201;40.428;-8.436;2023-11-21T01:10:17;101336.31;;;13.85;100.00
61318;BME280;47201;40.428;-8.436;2023-11-21T01:12:18;101335.44;;;13.83;100.00
61318;BME280;47201;40.428;-8.436;2023-11-21T01:14:19;101333.69;;;13.83;100.00
61318;BME280;47201;40.428;-8.436;2023-11-21T01:16:19;101335.44;;;13.87;100.00
61318;BME280;47201;40.428;-8.436;2023-11-21T01:18:20;101334.53;;;13.87;100.00
61318;BME280;47201;40.428;-8.436;2023-11-21T01:20:20;101338.94;;;13.83;100.00
61318;BME280;47201;40.428;-8.436;2023-11-21T01:22:21;101331.06;;;13.83;100.00
61318;BME280;47201;40.428;-8.436;2023-11-21T01:24:25;101333.69;;;13.85;100.00
61318;BME280;47201;40.428;-8.436;2023-11-21T01:26:26;101330.16;;;13.84;100.00
61318;BME280;47201;40.428;-8.436;2023-11-21T01:28:26;101329.28;;;13.82;100.00
61318;BME280;47201;40.428;-8.436;2023-11-21T01:30:28;101330.22;;;13.81;100.00
61318;BME280;47201;40.428;-8.436;2023-11-21T01:32:28;101331.94;;;13.82;100.00
61318;BME280;47201;40.428;-8.436;2023-11-21T01:34:28;101324.94;;;13.79;100.00
61318;BME280;47201;40.428;-8.436;2023-11-21T01:36:29;101326.66;;;13.82;100.00
61318;BME280;47201;40.428;-8.436;2023-11-21T01:38:32;101326.66;;;13.85;100.00
61318;BME280;47201;40.428;-8.436;2023-11-21T01:40:34;101326.66;;;13.82;100.00
61318;BME280;47201;40.428;-8.436;2023-11-21T01:42:35;101324.09;;;13.77;100.00
61318;BME280;47201;40.428;-8.436;2023-11-21T01:44:35;101329.34;;;13.74;100.00
61318;BME280;47201;40.428;-8.436;2023-11-21T01:46:36;101331.97;;;13.71;100.00
61318;BME280;47201;40.428;-8.436;2023-11-21T01:48:37;101324.13;;;13.68;100.00
61318;BME280;47201;40.428;-8.436;2023-11-21T01:50:38;101329.38;;;13.68;100.00
61318;BME280;47201;40.428;-8.436;2023-11-21T01:52:39;101332.00;;;13.70;100.00
61318;BME280;47201;40.428;-8.436;2023-11-21T01:54:41;101331.13;;;13.63;100.00
61318;BME280;47201;40.428;-8.436;2023-11-21T01:56:43;101336.44;;;13.58;100.00
61318;BME280;47201;40.428;-8.436;2023-11-21T01:58:45;101336.44;;;13.54;100.00
61318;BME280;47201;40.428;-8.436;2023-11-21T02:00:47;101337.28;;;13.56;100.00
61318;BME280;47201;40.428;-8.436;2023-11-21T02:02:50;101330.31;;;13.48;100.00
61318;BME280;47201;40.428;-8.436;2023-11-21T02:04:51;101337.31;;;13.49;100.00
61318;BME280;47201;40.428;-8.436;2023-11-21T02:06:51;101339.09;;;13.47;100.00
61318;BME280;47201;40.428;-8.436;2023-11-21T02:08:54;101339.09;;;13.47;100.00
61318;BME280;47201;40.428;-8.436;2023-11-21T02:10:55;101345.22;;;13.51;100.00
61318;BME280;47201;40.428;-8.436;2023-11-21T02:12:55;101347.84;;;13.45;100.00
61318;BME280;47201;40.428;-8.436;2023-11-21T02:14:57;101329.47;;;13.46;100.00
61318;BME280;47201;40.428;-8.436;2023-11-21T02:16:57;101341.72;;;13.47;100.00
61318;BME280;47201;40.428;-8.436;2023-11-21T02:18:58;101336.47;;;13.46;100.00
61318;BME280;47201;40.428;-8.436;2023-11-21T02:20:59;101333.81;;;13.51;100.00
61318;BME280;47201;40.428;-8.436;2023-11-21T02:23:03;101334.69;;;13.49;100.00
61318;BME280;47201;40.428;-8.436;2023-11-21T02:25:03;101323.34;;;13.44;100.00
61318;BME280;47201;40.428;-8.436;2023-11-21T02:27:04;101323.31;;;13.46;100.00
61318;BME280;47201;40.428;-8.436;2023-11-21T02:29:04;101326.84;;;13.46;100.00
61318;BME280;47201;40.428;-8.436;2023-11-21T02:31:05;101337.34;;;13.43;100.00
61318;BME280;47201;40.428;-8.436;2023-11-21T02:33:07;101342.63;;;13.40;100.00
61318;BME280;47201;40.428;-8.436;2023-11-21T02:35:11;101346.97;;;13.41;100.00
61318;BME280;47201;40.428;-8.436;2023-11-21T02:37:12;101346.09;;;13.42;100.00
61318;BME280;47201;40.428;-8.436;2023-11-21T02:39:13;101333.88;;;13.43;100.00
61318;BME280;47201;40.428;-8.436;2023-11-21T02:41:13;101341.72;;;13.44;100.00
61318;BME280;47201;40.428;-8.436;2023-11-21T02:43:14;101341.72;;;13.44;100.00
61318;BME280;47201;40.428;-8.436;2023-11-21T02:45:14;101347.84;;;13.46;100.00
61318;BME280;47201;40.428;-8.436;2023-11-21T02:47:16;101351.34;;;13.47;100.00
61318;BME280;47201;40.428;-8.436;2023-11-21T02:49:17;101347.84;;;13.48;100.00
61318;BME280;47201;40.428;-8.436;2023-11-21T02:51:17;101348.72;;;13.47;100.00
61318;BME280;47201;40.428;-8.436;2023-11-21T02:53:18;101350.47;;;13.46;100.00
61318;BME280;47201;40.428;-8.436;2023-11-21T02:55:18;101348.69;;;13.48;100.00
61318;BME280;47201;40.428;-8.436;2023-11-21T02:57:20;101349.63;;;13.43;100.00
61318;BME280;47201;40.428;-8.436;2023-11-21T02:59:20;101347.84;;;13.43;100.00
61318;BME280;47201;40.428;-8.436;2023-11-21T03:01:21;101352.22;;;13.44;100.00
61318;BME280;47201;40.428;-8.436;2023-11-21T03:03:21;101355.72;;;13.34;100.00
61318;BME280;47201;40.428;-8.436;2023-11-21T03:05:24;101357.47;;;13.35;100.00
61318;BME280;47201;40.428;-8.436;2023-11-21T03:07:24;101356.59;;;13.31;100.00
61318;BME280;47201;40.428;-8.436;2023-11-21T03:09:25;101356.63;;;13.27;100.00
61318;BME280;47201;40.428;-8.436;2023-11-21T03:11:28;101362.72;;;13.30;100.00
61318;BME280;47201;40.428;-8.436;2023-11-21T03:13:28;101361.00;;;13.31;100.00
61318;BME280;47201;40.428;-8.436;2023-11-21T03:15:29;101359.22;;;13.31;100.00
61318;BME280;47201;40.428;-8.436;2023-11-21T03:17:29;101360.97;;;13.29;100.00
61318;BME280;47201;40.428;-8.436;2023-11-21T03:19:30;101360.13;;;13.27;100.00
61318;BME280;47201;40.428;-8.436;2023-11-21T03:21:31;101359.25;;;13.30;100.00
61318;BME280;47201;40.428;-8.436;2023-11-21T03:23:31;101362.75;;;13.29;100.00
61318;BME280;47201;40.428;-8.436;2023-11-21T03:25:32;101367.13;;;13.27;100.00
61318;BME280;47201;40.428;-8.436;2023-11-21T03:27:32;101360.13;;;13.27;100.00
61318;BME280;47201;40.428;-8.436;2023-11-21T03:29:33;101361.88;;;13.24;100.00
61318;BME280;47201;40.428;-8.436;2023-11-21T03:31:33;101368.88;;;13.23;100.00
61318;BME280;47201;40.428;-8.436;2023-11-21T03:33:34;101362.75;;;13.24;100.00
61318;BME280;47201;40.428;-8.436;2023-11-21T03:35:35;101354.91;;;13.09;100.00
61318;BME280;47201;40.428;-8.436;2023-11-21T03:37:40;101367.16;;;13.10;100.00
61318;BME280;47201;40.428;-8.436;2023-11-21T03:39:41;101350.53;;;13.08;100.00
61318;BME280;47201;40.428;-8.436;2023-11-21T03:41:43;101350.53;;;12.97;100.00
61318;BME280;47201;40.428;-8.436;2023-11-21T03:43:43;101356.66;;;12.94;100.00
61318;BME280;47201;40.428;-8.436;2023-11-21T03:45:47;101349.69;;;12.95;100.00
61318;BME280;47201;40.428;-8.436;2023-11-21T03:47:51;101356.66;;;12.90;100.00
61318;BME280;47201;40.428;-8.436;2023-11-21T03:49:51;101348.81;;;12.93;100.00
61318;BME280;47201;40.428;-8.436;2023-11-21T03:51:52;101342.66;;;12.92;100.00
61318;BME280;47201;40.428;-8.436;2023-11-21T03:53:52;101349.66;;;12.89;100.00
61318;BME280;47201;40.428;-8.436;2023-11-21T03:55:53;101349.69;;;12.84;100.00
61318;BME280;47201;40.428;-8.436;2023-11-21T03:57:54;101352.31;;;12.73;100.00
61318;BME280;47201;40.428;-8.436;2023-11-21T03:59:55;101347.94;;;12.74;100.00
61318;BME280;47201;40.428;-8.436;2023-11-21T04:01:56;101352.31;;;12.73;100.00
61318;BME280;47201;40.428;-8.436;2023-11-21T04:03:57;101345.31;;;12.66;100.00
61318;BME280;47201;40.428;-8.436;2023-11-21T04:05:57;101346.19;;;12.62;100.00
61318;BME280;47201;40.428;-8.436;2023-11-21T04:07:58;101350.56;;;12.57;100.00
61318;BME280;47201;40.428;-8.436;2023-11-21T04:09:59;101354.06;;;12.62;100.00
61318;BME280;47201;40.428;-8.436;2023-11-21T04:11:59;101354.06;;;12.62;100.00
61318;BME280;47201;40.428;-8.436;2023-11-21T04:14:00;101348.81;;;12.56;100.00
61318;BME280;47201;40.428;-8.436;2023-11-21T04:16:00;101351.44;;;12.54;100.00
61318;BME280;47201;40.428;-8.436;2023-11-21T04:18:03;101353.19;;;12.57;100.00
61318;BME280;47201;40.428;-8.436;2023-11-21T04:20:04;101348.81;;;12.51;100.00
61318;BME280;47201;40.428;-8.436;2023-11-21T04:22:09;101353.19;;;12.50;100.00
61318;BME280;47201;40.428;-8.436;2023-11-21T04:24:09;101357.53;;;12.50;100.00
61318;BME280;47201;40.428;-8.436;2023-11-21T04:26:10;101349.69;;;12.42;100.00
61318;BME280;47201;40.428;-8.436;2023-11-21T04:28:11;101349.66;;;12.39;100.00
61318;BME280;47201;40.428;-8.436;2023-11-21T04:30:12;101350.56;;;12.41;100.00
61318;BME280;47201;40.428;-8.436;2023-11-21T04:32:13;101343.56;;;12.40;100.00
61318;BME280;47201;40.428;-8.436;2023-11-21T04:34:13;101339.19;;;12.37;100.00
61318;BME280;47201;40.428;-8.436;2023-11-21T04:36:14;101344.41;;;12.41;100.00
61318;BME280;47201;40.428;-8.436;2023-11-21T04:38:14;101355.78;;;12.38;100.00
61318;BME280;47201;40.428;-8.436;2023-11-21T04:40:15;101357.53;;;12.33;100.00
61318;BME280;47201;40.428;-8.436;2023-11-21T04:42:15;101353.16;;;12.32;100.00
61318;BME280;47201;40.428;-8.436;2023-11-21T04:44:16;101346.16;;;12.31;100.00
61318;BME280;47201;40.428;-8.436;2023-11-21T04:46:17;101357.50;;;12.30;100.00
61318;BME280;47201;40.428;-8.436;2023-11-21T04:48:17;101350.53;;;12.30;100.00
61318;BME280;47201;40.428;-8.436;2023-11-21T04:50:18;101352.28;;;12.30;100.00
61318;BME280;47201;40.428;-8.436;2023-11-21T04:52:19;101361.00;;;12.26;100.00
61318;BME280;47201;40.428;-8.436;2023-11-21T04:54:20;101360.16;;;12.27;100.00
61318;BME280;47201;40.428;-8.436;2023-11-21T04:56:20;101361.88;;;12.23;100.00
61318;BME280;47201;40.428;-8.436;2023-11-21T04:58:21;101362.75;;;12.17;100.00
61318;BME280;47201;40.428;-8.436;2023-11-21T05:00:21;101367.97;;;12.14;100.00
61318;BME280;47201;40.428;-8.436;2023-11-21T05:02:22;101373.22;;;12.11;100.00
61318;BME280;47201;40.428;-8.436;2023-11-21T05:04:23;101374.94;;;12.03;100.00
61318;BME280;47201;40.428;-8.436;2023-11-21T05:06:23;101380.16;;;11.98;100.00
61318;BME280;47201;40.428;-8.436;2023-11-21T05:08:24;101382.72;;;11.90;100.00
61318;BME280;47201;40.428;-8.436;2023-11-21T05:10:24;101389.66;;;11.78;100.00
61318;BME280;47201;40.428;-8.436;2023-11-21T05:12:25;101397.44;;;11.64;100.00
61318;BME280;47201;40.428;-8.436;2023-11-21T05:14:25;101401.72;;;11.49;100.00
61318;BME280;47201;40.428;-8.436;2023-11-21T05:16:26;101412.13;;;11.35;100.00
61318;BME280;47201;40.428;-8.436;2023-11-21T05:18:27;101406.00;;;11.32;100.00
61318;BME280;47201;40.428;-8.436;2023-11-21T05:20:29;101416.47;;;11.32;100.00
61318;BME280;47201;40.428;-8.436;2023-11-21T05:22:30;101410.28;;;11.19;100.00
61318;BME280;47201;40.428;-8.436;2023-11-21T05:24:31;101407.56;;;11.08;100.00
61318;BME280;47201;40.428;-8.436;2023-11-21T05:26:31;101409.25;;;11.03;100.00
61318;BME280;47201;40.428;-8.436;2023-11-21T05:28:32;101407.41;;;10.91;100.00
61318;BME280;47201;40.428;-8.436;2023-11-21T05:30:32;101409.06;;;10.81;100.00
61318;BME280;47201;40.428;-8.436;2023-11-21T05:32:33;101405.50;;;10.70;100.00
61318;BME280;47201;40.428;-8.436;2023-11-21T05:34:34;101402.84;;;10.63;100.00
61318;BME280;47201;40.428;-8.436;2023-11-21T05:36:35;101400.13;;;10.54;100.00
61318;BME280;47201;40.428;-8.436;2023-11-21T05:38:35;101409.69;;;10.49;100.00
61318;BME280;47201;40.428;-8.436;2023-11-21T05:40:36;101414.84;;;10.46;100.00
61318;BME280;47201;40.428;-8.436;2023-11-21T05:42:37;101412.25;;;10.47;100.00
61318;BME280;47201;40.428;-8.436;2023-11-21T05:44:41;101406.16;;;10.47;100.00
61318;BME280;47201;40.428;-8.436;2023-11-21T05:46:43;101415.75;;;10.48;100.00
61318;BME280;47201;40.428;-8.436;2023-11-21T05:48:43;101414.91;;;10.51;100.00
61318;BME280;47201;40.428;-8.436;2023-11-21T05:50:44;101419.28;;;10.53;100.00
61318;BME280;47201;40.428;-8.436;2023-11-21T05:52:45;101425.41;;;10.57;100.00
61318;BME280;47201;40.428;-8.436;2023-11-21T05:54:46;101425.47;;;10.61;100.00
61318;BME280;47201;40.428;-8.436;2023-11-21T05:56:46;101431.63;;;10.67;100.00
61318;BME280;47201;40.428;-8.436;2023-11-21T05:58:47;101428.16;;;10.69;100.00
61318;BME280;47201;40.428;-8.436;2023-11-21T06:00:47;101430.84;;;10.75;100.00
61318;BME280;47201;40.428;-8.436;2023-11-21T06:02:48;101437.84;;;10.79;100.00
61318;BME280;47201;40.428;-8.436;2023-11-21T06:04:58;101447.50;;;10.85;100.00
61318;BME280;47201;40.428;-8.436;2023-11-21T06:06:59;101442.31;;;10.93;100.00
61318;BME280;47201;40.428;-8.436;2023-11-21T06:09:00;101434.50;;;10.96;100.00
61318;BME280;47201;40.428;-8.436;2023-11-21T06:11:01;101437.13;;;10.99;100.00
61318;BME280;47201;40.428;-8.436;2023-11-21T06:13:02;101447.69;;;11.08;100.00
61318;BME280;47201;40.428;-8.436;2023-11-21T06:15:04;101448.59;;;11.12;100.00
61318;BME280;47201;40.428;-8.436;2023-11-21T06:17:05;101444.25;;;11.17;100.00
61318;BME280;47201;40.428;-8.436;2023-11-21T06:19:06;101441.63;;;11.16;100.00
61318;BME280;47201;40.428;-8.436;2023-11-21T06:21:09;101445.09;;;11.15;100.00
61318;BME280;47201;40.428;-8.436;2023-11-21T06:23:09;101443.38;;;11.15;100.00
61318;BME280;47201;40.428;-8.436;2023-11-21T06:25:10;101433.78;;;11.14;100.00
61318;BME280;47201;40.428;-8.436;2023-11-21T06:27:13;101440.78;;;11.15;100.00
61318;BME280;47201;40.428;-8.436;2023-11-21T06:29:13;101439.06;;;11.19;100.00
61318;BME280;47201;40.428;-8.436;2023-11-21T06:31:14;101443.44;;;11.21;100.00
61318;BME280;47201;40.428;-8.436;2023-11-21T06:33:14;101445.19;;;11.22;100.00
61318;BME280;47201;40.428;-8.436;2023-11-21T06:35:16;101459.94;;;11.17;100.00
61318;BME280;47201;40.428;-8.436;2023-11-21T06:37:17;101460.84;;;11.18;100.00
61318;BME280;47201;40.428;-8.436;2023-11-21T06:39:17;101466.09;;;11.19;100.00
61318;BME280;47201;40.428;-8.436;2023-11-21T06:41:18;101475.69;;;11.20;100.00
61318;BME280;47201;40.428;-8.436;2023-11-21T06:43:18;101471.38;;;11.24;100.00
61318;BME280;47201;40.428;-8.436;2023-11-21T06:45:18;101471.31;;;11.21;100.00
61318;BME280;47201;40.428;-8.436;2023-11-21T06:47:20;101481.78;;;11.21;100.00
61318;BME280;47201;40.428;-8.436;2023-11-21T06:49:20;101474.78;;;11.17;100.00
61318;BME280;47201;40.428;-8.436;2023-11-21T06:51:21;101473.84;;;11.10;100.00
61318;BME280;47201;40.428;-8.436;2023-11-21T06:53:21;101478.22;;;11.09;100.00
61318;BME280;47201;40.428;-8.436;2023-11-21T06:55:22;101478.97;;;10.94;100.00
61318;BME280;47201;40.428;-8.436;2023-11-21T06:57:22;101489.28;;;10.79;100.00
61318;BME280;47201;40.428;-8.436;2023-11-21T06:59:23;101490.88;;;10.65;100.00
61318;BME280;47201;40.428;-8.436;2023-11-21T07:01:24;101489.81;;;10.48;100.00
61318;BME280;47201;40.428;-8.436;2023-11-21T07:03:25;101501.00;;;10.37;100.00
61318;BME280;47201;40.428;-8.436;2023-11-21T07:05:26;101502.59;;;10.27;100.00
61318;BME280;47201;40.428;-8.436;2023-11-21T07:07:27;101499.09;;;10.25;100.00
61318;BME280;47201;40.428;-8.436;2023-11-21T07:09:27;101499.09;;;10.25;100.00
61318;BME280;47201;40.428;-8.436;2023-11-21T07:11:28;101487.75;;;10.24;100.00
61318;BME280;47201;40.428;-8.436;2023-11-21T07:13:29;101498.28;;;10.32;100.00
61318;BME280;47201;40.428;-8.436;2023-11-21T07:15:29;101497.38;;;10.28;100.00
61318;BME280;47201;40.428;-8.436;2023-11-21T07:17:30;101495.69;;;10.30;100.00
61318;BME280;47201;40.428;-8.436;2023-11-21T07:19:31;101499.19;;;10.31;100.00
61318;BME280;47201;40.428;-8.436;2023-11-21T07:21:35;101504.38;;;10.29;100.00
61318;BME280;47201;40.428;-8.436;2023-11-21T07:23:36;101504.41;;;10.32;100.00
61318;BME280;47201;40.428;-8.436;2023-11-21T07:25:36;101505.31;;;10.35;100.00
61318;BME280;47201;40.428;-8.436;2023-11-21T07:27:37;101509.75;;;10.40;100.00
61318;BME280;47201;40.428;-8.436;2023-11-21T07:29:37;101509.81;;;10.45;100.00
61318;BME280;47201;40.428;-8.436;2023-11-21T07:31:40;101515.88;;;10.42;100.00
61318;BME280;47201;40.428;-8.436;2023-11-21T07:33:41;101519.41;;;10.44;100.00
61318;BME280;47201;40.428;-8.436;2023-11-21T07:35:42;101514.19;;;10.46;100.00
61318;BME280;47201;40.428;-8.436;2023-11-21T07:37:42;101520.28;;;10.46;100.00
61318;BME280;47201;40.428;-8.436;2023-11-21T07:39:43;101519.41;;;10.46;100.00
61318;BME280;47201;40.428;-8.436;2023-11-21T07:41:44;101527.22;;;10.43;100.00
61318;BME280;47201;40.428;-8.436;2023-11-21T07:43:48;101530.75;;;10.46;100.00
61318;BME280;47201;40.428;-8.436;2023-11-21T07:45:49;101537.78;;;10.52;100.00
61318;BME280;47201;40.428;-8.436;2023-11-21T07:47:49;101539.59;;;10.56;100.00
61318;BME280;47201;40.428;-8.436;2023-11-21T07:49:50;101542.22;;;10.58;100.00
61318;BME280;47201;40.428;-8.436;2023-11-21T07:51:50;101541.31;;;10.54;100.00
61318;BME280;47201;40.428;-8.436;2023-11-21T07:53:51;101550.06;;;10.56;100.00
61318;BME280;47201;40.428;-8.436;2023-11-21T07:55:52;101556.97;;;10.53;100.00
61318;BME280;47201;40.428;-8.436;2023-11-21T07:57:52;101549.00;;;10.43;100.00
61318;BME280;47201;40.428;-8.436;2023-11-21T07:59:53;101550.63;;;10.35;100.00
61318;BME280;47201;40.428;-8.436;2023-11-21T08:01:55;101556.63;;;10.28;100.00
61318;BME280;47201;40.428;-8.436;2023-11-21T08:03:55;101564.31;;;10.17;100.00
61318;BME280;47201;40.428;-8.436;2023-11-21T08:05:59;101571.25;;;10.15;100.00
61318;BME280;47201;40.428;-8.436;2023-11-21T08:08:00;101576.41;;;10.09;100.00
61318;BME280;47201;40.428;-8.436;2023-11-21T08:10:00;101576.44;;;10.12;100.00
61318;BME280;47201;40.428;-8.436;2023-11-21T08:12:01;101582.53;;;10.12;100.00
61318;BME280;47201;40.428;-8.436;2023-11-21T08:14:02;101578.31;;;10.21;100.00
61318;BME280;47201;40.428;-8.436;2023-11-21T08:16:03;101577.59;;;10.32;100.00
61318;BME280;47201;40.428;-8.436;2023-11-21T08:18:05;101573.38;;;10.41;100.00
61318;BME280;47201;40.428;-8.436;2023-11-21T08:20:10;101570.84;;;10.45;100.00
61318;BME280;47201;40.428;-8.436;2023-11-21T08:22:11;101575.25;;;10.51;100.00
61318;BME280;47201;40.428;-8.436;2023-11-21T08:24:11;101580.59;;;10.59;100.00
61318;BME280;47201;40.428;-8.436;2023-11-21T08:26:12;101580.66;;;10.67;100.00
61318;BME280;47201;40.428;-8.436;2023-11-21T08:28:13;101585.94;;;10.70;100.00
61318;BME280;47201;40.428;-8.436;2023-11-21T08:30:16;101584.19;;;10.70;100.00
61318;BME280;47201;40.428;-8.436;2023-11-21T08:32:19;101584.31;;;10.81;100.00
61318;BME280;47201;40.428;-8.436;2023-11-21T08:34:22;101586.97;;;10.84;100.00
61318;BME280;47201;40.428;-8.436;2023-11-21T08:36:25;101581.88;;;10.93;100.00
61318;BME280;47201;40.428;-8.436;2023-11-21T08:38:26;101581.97;;;11.06;100.00
61318;BME280;47201;40.428;-8.436;2023-11-21T08:40:28;101582.84;;;11.06;100.00
61318;BME280;47201;40.428;-8.436;2023-11-21T08:42:34;101578.69;;;11.25;100.00
61318;BME280;47201;40.428;-8.436;2023-11-21T08:44:35;101588.38;;;11.37;100.00
61318;BME280;47201;40.428;-8.436;2023-11-21T08:46:36;101593.56;;;11.30;100.00
61318;BME280;47201;40.428;-8.436;2023-11-21T08:48:40;101588.47;;;11.45;100.00
61318;BME280;47201;40.428;-8.436;2023-11-21T08:50:42;101593.06;;;11.72;100.00
61318;BME280;47201;40.428;-8.436;2023-11-21T08:52:43;101594.84;;;11.78;100.00
61318;BME280;47201;40.428;-8.436;2023-11-21T08:54:44;101595.75;;;11.80;100.00
61318;BME280;47201;40.428;-8.436;2023-11-21T08:56:48;101602.72;;;11.81;100.00
61318;BME280;47201;40.428;-8.436;2023-11-21T08:58:51;101612.31;;;11.76;100.00
61318;BME280;47201;40.428;-8.436;2023-11-21T09:00:53;101604.28;;;11.57;100.00
61318;BME280;47201;40.428;-8.436;2023-11-21T09:02:59;101605.31;;;11.75;100.00
61318;BME280;47201;40.428;-8.436;2023-11-21T09:05:01;101606.22;;;11.82;100.00
61318;BME280;47201;40.428;-8.436;2023-11-21T09:07:12;101608.06;;;11.95;100.00
61318;BME280;47201;40.428;-8.436;2023-11-21T09:09:13;101608.16;;;12.03;100.00
61318;BME280;47201;40.428;-8.436;2023-11-21T09:11:14;101616.00;;;12.00;100.00
61318;BME280;47201;40.428;-8.436;2023-11-21T09:13:17;101609.22;;;12.31;100.00
61318;BME280;47201;40.428;-8.436;2023-11-21T09:15:18;101620.63;;;12.40;100.00
61318;BME280;47201;40.428;-8.436;2023-11-21T09:17:21;101638.03;;;12.27;100.00
61318;BME280;47201;40.428;-8.436;2023-11-21T09:19:22;101631.31;;;12.78;100.00
61318;BME280;47201;40.428;-8.436;2023-11-21T09:21:28;101632.13;;;14.96;100.00
61318;BME280;47201;40.428;-8.436;2023-11-21T09:23:38;101634.13;;;17.95;89.41
61318;BME280;47201;40.428;-8.436;2023-11-21T09:25:38;101635.09;;;19.27;82.01
61318;BME280;47201;40.428;-8.436;2023-11-21T09:27:39;101652.53;;;20.75;78.25
61318;BME280;47201;40.428;-8.436;2023-11-21T09:29:40;101641.41;;;22.28;80.04
61318;BME280;47201;40.428;-8.436;2023-11-21T09:31:40;101653.47;;;23.11;81.92
61318;BME280;47201;40.428;-8.436;2023-11-21T09:33:43;101660.47;;;23.14;83.79
61318;BME280;47201;40.428;-8.436;2023-11-21T09:35:44;101667.00;;;24.37;84.16
61318;BME280;47201;40.428;-8.436;2023-11-21T09:37:45;101666.00;;;24.98;84.35
61318;BME280;47201;40.428;-8.436;2023-11-21T09:39:46;101670.25;;;25.95;85.12
61318;BME280;47201;40.428;-8.436;2023-11-21T09:41:51;101676.34;;;24.47;87.35
61318;BME280;47201;40.428;-8.436;2023-11-21T09:43:52;101676.69;;;25.37;86.25
61318;BME280;47201;40.428;-8.436;2023-11-21T09:46:02;101675.63;;;25.22;87.38
61318;BME280;47201;40.428;-8.436;2023-11-21T09:48:06;101693.28;;;26.34;85.18
61318;BME280;47201;40.428;-8.436;2023-11-21T09:50:07;101693.81;;;26.74;85.01
61318;BME280;47201;40.428;-8.436;2023-11-21T09:52:10;101686.78;;;25.68;86.51
61318;BME280;47201;40.428;-8.436;2023-11-21T09:54:15;101681.50;;;24.92;87.13
61318;BME280;47201;40.428;-8.436;2023-11-21T09:56:17;101677.28;;;25.43;86.54
61318;BME280;47201;40.428;-8.436;2023-11-21T09:58:26;101679.06;;;25.79;86.73
61318;BME280;47201;40.428;-8.436;2023-11-21T10:00:31;101685.25;;;26.68;85.26
61318;BME280;47201;40.428;-8.436;2023-11-21T10:02:34;101684.31;;;27.02;85.18
61318;BME280;47201;40.428;-8.436;2023-11-21T10:04:39;101682.81;;;27.13;83.21
61318;BME280;47201;40.428;-8.436;2023-11-21T10:06:40;101685.94;;;23.89;88.79
61318;BME280;47201;40.428;-8.436;2023-11-21T10:08:50;101680.22;;;23.54;89.54
61318;BME280;47201;40.428;-8.436;2023-11-21T10:10:51;101676.59;;;24.62;88.45
61318;BME280;47201;40.428;-8.436;2023-11-21T10:12:55;101675.81;;;25.36;86.61
61318;BME280;47201;40.428;-8.436;2023-11-21T10:14:57;101676.41;;;26.32;85.97
61318;BME280;47201;40.428;-8.436;2023-11-21T10:16:58;101676.69;;;26.10;85.77
61318;BME280;47201;40.428;-8.436;2023-11-21T10:18:59;101676.84;;;27.07;84.97